createdAt,value
2017-10-14T00:00:01.071Z,11.00
2017-10-14T00:01:00.996Z,10.97
2017-10-14T00:02:00.912Z,11.00
2017-10-14T00:03:00.836Z,11.04
2017-10-14T00:04:00.757Z,10.94
2017-10-14T00:05:00.703Z,10.96
2017-10-14T00:06:00.629Z,10.96
2017-10-14T00:07:00.529Z,10.90
2017-10-14T00:08:00.445Z,11.02
2017-10-14T00:09:00.367Z,10.93
2017-10-14T00:10:00.288Z,10.94
2017-10-14T00:11:00.209Z,10.93
2017-10-14T00:12:00.132Z,10.89
2017-10-14T00:13:00.057Z,10.93
2017-10-14T00:13:59.978Z,10.92
2017-10-14T00:14:59.901Z,10.87
2017-10-14T00:15:59.820Z,10.84
2017-10-14T00:16:59.742Z,10.93
2017-10-14T00:17:59.663Z,10.84
2017-10-14T00:18:59.586Z,10.89
2017-10-14T00:19:59.507Z,10.82
2017-10-14T00:20:59.442Z,10.76
2017-10-14T00:21:59.351Z,10.72
2017-10-14T00:22:59.271Z,10.71
2017-10-14T00:23:59.194Z,10.75
2017-10-14T00:24:59.118Z,10.79
2017-10-14T00:25:59.037Z,10.72
2017-10-14T00:26:58.960Z,10.76
2017-10-14T00:27:58.883Z,10.69
2017-10-14T00:28:58.804Z,10.75
2017-10-14T00:29:58.723Z,10.74
2017-10-14T00:30:58.646Z,10.75
2017-10-14T00:31:58.567Z,10.72
2017-10-14T00:32:58.490Z,10.68
2017-10-14T00:33:58.411Z,10.74
2017-10-14T00:34:58.333Z,10.76
2017-10-14T00:35:58.255Z,10.75
2017-10-14T00:36:58.177Z,10.76
2017-10-14T00:37:58.098Z,10.71
2017-10-14T00:38:58.029Z,10.79
2017-10-14T00:39:57.942Z,10.76
2017-10-14T00:40:57.864Z,10.78
2017-10-14T00:41:57.783Z,10.84
2017-10-14T00:42:57.707Z,10.72
2017-10-14T00:43:57.632Z,10.82
2017-10-14T00:44:57.554Z,10.87
2017-10-14T00:45:57.471Z,10.76
2017-10-14T00:46:57.397Z,10.78
2017-10-14T00:47:57.319Z,10.84
2017-10-14T00:48:57.239Z,10.82
2017-10-14T00:49:57.162Z,10.86
2017-10-14T00:50:57.080Z,10.87
2017-10-14T00:51:57.002Z,10.82
2017-10-14T00:52:56.924Z,10.89
2017-10-14T00:53:56.847Z,10.82
2017-10-14T00:54:56.768Z,10.89
2017-10-14T00:55:56.694Z,10.76
2017-10-14T00:56:56.613Z,10.84
2017-10-14T00:57:56.532Z,10.86
2017-10-14T00:58:56.454Z,10.87
2017-10-14T00:59:56.379Z,10.79
2017-10-14T01:00:56.298Z,10.82
2017-10-14T01:01:56.220Z,10.81
2017-10-14T01:02:56.430Z,10.86
2017-10-14T01:03:56.065Z,10.84
2017-10-14T01:04:56.342Z,10.81
2017-10-14T01:05:55.907Z,10.82
2017-10-14T01:06:56.106Z,10.82
2017-10-14T01:07:55.751Z,10.86
2017-10-14T01:08:55.673Z,10.82
2017-10-14T01:09:55.594Z,10.86
2017-10-14T01:10:55.517Z,10.81
2017-10-14T01:11:55.451Z,10.76
2017-10-14T01:12:55.360Z,10.75
2017-10-14T01:13:55.281Z,10.78
2017-10-14T01:14:55.203Z,10.76
2017-10-14T01:15:55.126Z,10.69
2017-10-14T01:16:55.057Z,10.71
2017-10-14T01:17:54.999Z,10.79
2017-10-14T01:18:54.891Z,10.64
2017-10-14T01:19:54.812Z,10.67
2017-10-14T01:20:54.734Z,10.72
2017-10-14T01:21:54.655Z,10.67
2017-10-14T01:22:54.714Z,10.63
2017-10-14T01:23:55.297Z,10.57
2017-10-14T01:24:57.240Z,10.54
2017-10-14T01:25:54.659Z,10.53
2017-10-14T01:26:54.265Z,10.48
2017-10-14T01:27:54.186Z,10.60
2017-10-14T01:28:54.109Z,10.53
2017-10-14T01:29:54.028Z,10.57
2017-10-14T01:30:53.950Z,10.53
2017-10-14T01:31:53.874Z,10.54
2017-10-14T01:32:53.794Z,10.44
2017-10-14T01:33:53.715Z,10.54
2017-10-14T01:34:53.637Z,10.54
2017-10-14T01:35:53.566Z,10.53
2017-10-14T01:36:53.482Z,10.57
2017-10-14T01:37:53.401Z,10.61
2017-10-14T01:38:53.324Z,10.48
2017-10-14T01:39:53.246Z,10.46
2017-10-14T01:40:53.167Z,10.46
2017-10-14T01:41:53.089Z,10.51
2017-10-14T01:42:53.010Z,10.41
2017-10-14T01:43:52.931Z,10.42
2017-10-14T01:44:52.853Z,10.38
2017-10-14T01:45:53.048Z,10.38
2017-10-14T01:46:52.697Z,10.37
2017-10-14T01:47:52.619Z,10.33
2017-10-14T01:48:52.540Z,10.44
2017-10-14T01:49:52.628Z,10.34
2017-10-14T01:50:52.550Z,10.30
2017-10-14T01:51:52.305Z,10.34
2017-10-14T01:52:52.227Z,10.31
2017-10-14T01:53:52.437Z,10.34
2017-10-14T01:54:52.216Z,10.34
2017-10-14T01:55:52.173Z,10.26
2017-10-14T01:56:51.913Z,10.31
2017-10-14T01:57:51.911Z,10.33
2017-10-14T01:58:52.000Z,10.25
2017-10-14T01:59:51.835Z,10.37
2017-10-14T02:00:52.595Z,10.37
2017-10-14T02:01:51.739Z,10.33
2017-10-14T02:02:51.566Z,10.31
2017-10-14T02:03:51.480Z,10.33
2017-10-14T02:04:51.764Z,10.33
2017-10-14T02:05:51.228Z,10.33
2017-10-14T02:06:51.128Z,10.33
2017-10-14T02:07:51.432Z,10.34
2017-10-14T02:08:51.227Z,10.26
2017-10-14T02:09:51.006Z,10.31
2017-10-14T02:10:50.814Z,10.31
2017-10-14T02:11:50.918Z,10.34
2017-10-14T02:12:51.187Z,10.31
2017-10-14T02:13:50.576Z,10.35
2017-10-14T02:14:50.681Z,10.28
2017-10-14T02:15:50.492Z,10.25
2017-10-14T02:16:50.382Z,10.31
2017-10-14T02:17:50.383Z,10.30
2017-10-14T02:18:50.203Z,10.23
2017-10-14T02:19:50.405Z,10.28
2017-10-14T02:20:50.042Z,10.33
2017-10-14T02:21:49.985Z,10.33
2017-10-14T02:22:50.084Z,10.30
2017-10-14T02:23:49.857Z,10.22
2017-10-14T02:24:49.879Z,10.30
2017-10-14T02:25:49.877Z,10.22
2017-10-14T02:26:49.561Z,10.23
2017-10-14T02:27:49.740Z,10.19
2017-10-14T02:28:49.542Z,10.20
2017-10-14T02:29:49.554Z,10.25
2017-10-14T02:30:49.551Z,10.22
2017-10-14T02:31:49.266Z,10.22
2017-10-14T02:32:49.164Z,10.17
2017-10-14T02:33:49.069Z,10.16
2017-10-14T02:34:48.925Z,10.22
2017-10-14T02:35:48.889Z,10.16
2017-10-14T02:36:49.399Z,10.22
2017-10-14T02:37:49.193Z,10.20
2017-10-14T02:38:48.618Z,10.23
2017-10-14T02:39:48.549Z,10.16
2017-10-14T02:40:48.600Z,10.19
2017-10-14T02:41:48.374Z,10.17
2017-10-14T02:42:48.313Z,10.20
2017-10-14T02:43:48.284Z,10.25
2017-10-14T02:44:48.321Z,10.19
2017-10-14T02:45:48.062Z,10.23
2017-10-14T02:46:48.027Z,10.19
2017-10-14T02:47:48.239Z,10.19
2017-10-14T02:48:47.825Z,10.10
2017-10-14T02:49:47.761Z,10.15
2017-10-14T02:50:48.235Z,10.12
2017-10-14T02:51:47.696Z,10.07
2017-10-14T02:52:47.511Z,10.07
2017-10-14T02:53:47.436Z,10.05
2017-10-14T02:54:47.368Z,10.01
2017-10-14T02:55:47.699Z,10.01
2017-10-14T02:56:47.195Z,10.01
2017-10-14T02:57:47.189Z,9.98
2017-10-14T02:58:47.039Z,9.99
2017-10-14T02:59:47.095Z,9.97
2017-10-14T03:00:46.883Z,10.10
2017-10-14T03:01:46.863Z,10.05
2017-10-14T03:02:47.228Z,10.01
2017-10-14T03:03:46.914Z,9.97
2017-10-14T03:04:46.593Z,10.10
2017-10-14T03:05:46.596Z,10.01
2017-10-14T03:06:47.139Z,10.02
2017-10-14T03:07:46.334Z,10.10
2017-10-14T03:08:46.252Z,10.01
2017-10-14T03:09:46.452Z,9.99
2017-10-14T03:10:46.102Z,10.09
2017-10-14T03:11:46.021Z,10.04
2017-10-14T03:12:45.944Z,9.98
2017-10-14T03:13:45.918Z,10.05
2017-10-14T03:14:45.927Z,10.01
2017-10-14T03:15:45.902Z,10.01
2017-10-14T03:16:45.640Z,10.02
2017-10-14T03:17:46.520Z,9.94
2017-10-14T03:18:45.800Z,9.95
2017-10-14T03:19:45.597Z,9.94
2017-10-14T03:20:45.352Z,9.86
2017-10-14T03:21:47.818Z,9.94
2017-10-14T03:22:45.609Z,9.84
2017-10-14T03:23:45.821Z,9.86
2017-10-14T03:24:46.056Z,9.87
2017-10-14T03:25:45.125Z,9.86
2017-10-14T03:26:45.144Z,9.84
2017-10-14T03:27:44.999Z,9.86
2017-10-14T03:28:45.133Z,9.83
2017-10-14T03:29:47.308Z,9.83
2017-10-14T03:30:45.471Z,9.87
2017-10-14T03:31:45.418Z,9.76
2017-10-14T03:32:44.361Z,9.76
2017-10-14T03:33:44.287Z,9.86
2017-10-14T03:34:44.748Z,9.77
2017-10-14T03:35:45.785Z,9.73
2017-10-14T03:36:45.093Z,9.73
2017-10-14T03:37:46.731Z,9.76
2017-10-14T03:38:43.920Z,9.74
2017-10-14T03:39:43.836Z,9.76
2017-10-14T03:40:43.894Z,9.76
2017-10-14T03:41:43.794Z,9.76
2017-10-14T03:42:43.981Z,9.77
2017-10-14T03:43:44.273Z,9.72
2017-10-14T03:44:43.506Z,9.77
2017-10-14T03:45:43.719Z,9.65
2017-10-14T03:46:43.322Z,9.64
2017-10-14T03:47:43.943Z,9.66
2017-10-14T03:48:43.226Z,9.65
2017-10-14T03:49:43.745Z,9.73
2017-10-14T03:50:43.077Z,9.69
2017-10-14T03:51:42.925Z,9.74
2017-10-14T03:52:43.239Z,9.72
2017-10-14T03:53:43.259Z,9.76
2017-10-14T03:54:42.713Z,9.73
2017-10-14T03:55:42.774Z,9.73
2017-10-14T03:56:42.792Z,9.76
2017-10-14T03:57:42.451Z,9.73
2017-10-14T03:58:42.475Z,9.76
2017-10-14T03:59:42.299Z,9.69
2017-10-14T04:00:42.310Z,9.68
2017-10-14T04:01:42.900Z,9.73
2017-10-14T04:02:43.937Z,9.72
2017-10-14T04:03:42.020Z,9.74
2017-10-14T04:04:42.666Z,9.77
2017-10-14T04:05:41.816Z,9.73
2017-10-14T04:06:41.813Z,9.76
2017-10-14T04:07:41.784Z,9.74
2017-10-14T04:08:41.521Z,9.74
2017-10-14T04:09:42.198Z,9.72
2017-10-14T04:10:41.753Z,9.76
2017-10-14T04:11:43.845Z,9.77
2017-10-14T04:12:41.450Z,9.76
2017-10-14T04:13:42.390Z,9.77
2017-10-14T04:14:41.756Z,9.64
2017-10-14T04:15:42.474Z,9.66
2017-10-14T04:16:41.064Z,9.72
2017-10-14T04:17:40.804Z,9.65
2017-10-14T04:18:40.880Z,9.64
2017-10-14T04:19:41.379Z,9.72
2017-10-14T04:20:40.887Z,9.66
2017-10-14T04:21:40.599Z,9.64
2017-10-14T04:22:40.489Z,9.64
2017-10-14T04:23:42.045Z,9.65
2017-10-14T04:24:41.733Z,9.65
2017-10-14T04:25:41.176Z,9.62
2017-10-14T04:26:40.095Z,9.66
2017-10-14T04:27:40.031Z,9.62
2017-10-14T04:28:40.120Z,9.66
2017-10-14T04:29:40.046Z,9.65
2017-10-14T04:30:39.824Z,9.68
2017-10-14T04:31:41.568Z,9.62
2017-10-14T04:32:39.840Z,9.68
2017-10-14T04:33:39.756Z,9.61
2017-10-14T04:34:39.741Z,9.66
2017-10-14T04:35:41.469Z,9.62
2017-10-14T04:36:41.939Z,9.65
2017-10-14T04:37:39.265Z,9.65
2017-10-14T04:38:39.145Z,9.64
2017-10-14T04:39:42.065Z,9.65
2017-10-14T04:40:38.985Z,9.65
2017-10-14T04:41:38.914Z,9.72
2017-10-14T04:42:40.803Z,9.72
2017-10-14T04:43:40.421Z,9.66
2017-10-14T04:44:39.661Z,9.62
2017-10-14T04:45:38.803Z,9.66
2017-10-14T04:46:38.620Z,9.66
2017-10-14T04:47:38.446Z,9.65
2017-10-14T04:48:38.618Z,9.69
2017-10-14T04:49:38.297Z,9.65
2017-10-14T04:50:38.196Z,9.62
2017-10-14T04:51:38.129Z,9.66
2017-10-14T04:52:38.036Z,9.68
2017-10-14T04:53:38.716Z,9.68
2017-10-14T04:54:37.878Z,9.76
2017-10-14T04:55:37.815Z,9.73
2017-10-14T04:56:38.280Z,9.69
2017-10-14T04:57:37.694Z,9.68
2017-10-14T04:58:37.682Z,9.65
2017-10-14T04:59:39.486Z,9.62
2017-10-14T05:00:37.468Z,9.77
2017-10-14T05:01:37.326Z,9.68
2017-10-14T05:02:37.284Z,9.73
2017-10-14T05:03:37.185Z,9.66
2017-10-14T05:04:37.091Z,9.65
2017-10-14T05:05:37.639Z,9.66
2017-10-14T05:06:37.128Z,9.73
2017-10-14T05:07:37.001Z,9.65
2017-10-14T05:08:36.778Z,9.65
2017-10-14T05:09:39.358Z,9.61
2017-10-14T05:10:36.652Z,9.64
2017-10-14T05:11:38.401Z,9.62
2017-10-14T05:12:36.586Z,9.61
2017-10-14T05:13:36.433Z,9.62
2017-10-14T05:14:36.305Z,9.68
2017-10-14T05:15:36.508Z,9.72
2017-10-14T05:16:36.140Z,9.69
2017-10-14T05:17:36.101Z,9.66
2017-10-14T05:18:36.143Z,9.66
2017-10-14T05:19:36.390Z,9.61
2017-10-14T05:20:35.825Z,9.61
2017-10-14T05:21:38.317Z,9.72
2017-10-14T05:22:35.665Z,9.74
2017-10-14T05:23:35.709Z,9.68
2017-10-14T05:24:35.546Z,9.66
2017-10-14T05:25:35.648Z,9.64
2017-10-14T05:26:36.344Z,9.62
2017-10-14T05:27:35.279Z,9.61
2017-10-14T05:28:35.192Z,9.59
2017-10-14T05:29:35.195Z,9.61
2017-10-14T05:30:35.062Z,9.64
2017-10-14T05:31:34.954Z,9.66
2017-10-14T05:32:35.146Z,9.61
2017-10-14T05:33:34.797Z,9.65
2017-10-14T05:34:34.717Z,9.66
2017-10-14T05:35:34.640Z,9.46
2017-10-14T05:36:34.560Z,9.51
2017-10-14T05:37:34.480Z,9.50
2017-10-14T05:38:34.468Z,9.46
2017-10-14T05:39:35.315Z,9.47
2017-10-14T05:40:34.259Z,9.46
2017-10-14T05:41:36.810Z,9.46
2017-10-14T05:42:34.094Z,9.43
2017-10-14T05:43:34.005Z,9.61
2017-10-14T05:44:33.926Z,9.62
2017-10-14T05:45:33.846Z,9.61
2017-10-14T05:46:33.768Z,9.66
2017-10-14T05:47:33.688Z,9.55
2017-10-14T05:48:33.612Z,9.59
2017-10-14T05:49:33.714Z,9.64
2017-10-14T05:50:33.451Z,9.65
2017-10-14T05:51:33.376Z,9.68
2017-10-14T05:52:33.294Z,9.66
2017-10-14T05:53:33.217Z,9.65
2017-10-14T05:54:33.135Z,9.72
2017-10-14T05:55:33.060Z,9.65
2017-10-14T05:56:32.978Z,9.64
2017-10-14T05:57:32.898Z,9.69
2017-10-14T05:58:32.820Z,9.62
2017-10-14T05:59:32.740Z,9.72
2017-10-14T06:00:32.667Z,9.69
2017-10-14T06:01:32.581Z,9.66
2017-10-14T06:02:32.506Z,9.72
2017-10-14T06:03:32.424Z,9.64
2017-10-14T06:04:32.346Z,9.62
2017-10-14T06:05:32.264Z,9.76
2017-10-14T06:06:32.192Z,9.74
2017-10-14T06:07:32.108Z,9.77
2017-10-14T06:08:32.030Z,9.69
2017-10-14T06:09:31.952Z,9.73
2017-10-14T06:10:31.869Z,9.69
2017-10-14T06:11:31.794Z,9.79
2017-10-14T06:12:31.730Z,9.82
2017-10-14T06:13:31.647Z,9.87
2017-10-14T06:14:31.555Z,9.89
2017-10-14T06:15:31.475Z,9.83
2017-10-14T06:16:31.457Z,9.87
2017-10-14T06:17:31.319Z,9.94
2017-10-14T06:18:31.243Z,9.89
2017-10-14T06:19:31.161Z,10.01
2017-10-14T06:20:31.082Z,10.01
2017-10-14T06:21:31.003Z,9.98
2017-10-14T06:22:30.923Z,10.07
2017-10-14T06:23:31.044Z,10.01
2017-10-14T06:24:30.832Z,10.04
2017-10-14T06:25:30.686Z,10.13
2017-10-14T06:26:30.608Z,10.02
2017-10-14T06:27:30.530Z,10.16
2017-10-14T06:28:30.451Z,10.19
2017-10-14T06:29:30.373Z,10.19
2017-10-14T06:30:30.362Z,10.22
2017-10-14T06:31:30.215Z,10.19
2017-10-14T06:32:30.135Z,10.23
2017-10-14T06:33:30.055Z,10.33
2017-10-14T06:34:29.979Z,10.31
2017-10-14T06:35:29.909Z,10.28
2017-10-14T06:36:29.822Z,10.33
2017-10-14T06:37:29.743Z,10.37
2017-10-14T06:38:29.666Z,10.48
2017-10-14T06:39:29.586Z,10.46
2017-10-14T06:40:29.507Z,10.46
2017-10-14T06:41:29.429Z,10.42
2017-10-14T06:42:29.353Z,10.49
2017-10-14T06:43:29.273Z,10.48
2017-10-14T06:44:29.193Z,10.48
2017-10-14T06:45:29.604Z,10.44
2017-10-14T06:46:29.035Z,10.46
2017-10-14T06:47:28.959Z,10.48
2017-10-14T06:48:28.879Z,10.53
2017-10-14T06:49:28.803Z,10.48
2017-10-14T06:50:28.721Z,10.38
2017-10-14T06:51:28.645Z,10.48
2017-10-14T06:52:28.568Z,10.46
2017-10-14T06:53:28.493Z,10.42
2017-10-14T06:54:28.407Z,10.48
2017-10-14T06:55:28.335Z,10.44
2017-10-14T06:56:28.252Z,10.46
2017-10-14T06:57:28.420Z,10.44
2017-10-14T06:58:28.094Z,10.51
2017-10-14T06:59:28.017Z,10.51
2017-10-14T07:00:27.939Z,10.48
2017-10-14T07:01:27.860Z,10.49
2017-10-14T07:02:28.107Z,10.44
2017-10-14T07:03:27.703Z,10.54
2017-10-14T07:04:27.628Z,10.48
2017-10-14T07:05:27.547Z,10.60
2017-10-14T07:06:27.469Z,10.64
2017-10-14T07:07:27.390Z,10.63
2017-10-14T07:08:27.312Z,10.61
2017-10-14T07:09:27.235Z,10.69
2017-10-14T07:10:27.154Z,10.60
2017-10-14T07:11:27.077Z,10.67
2017-10-14T07:12:26.999Z,10.69
2017-10-14T07:13:26.932Z,10.72
2017-10-14T07:14:26.842Z,10.71
2017-10-14T07:15:26.768Z,10.79
2017-10-14T07:16:26.687Z,10.76
2017-10-14T07:17:26.608Z,10.79
2017-10-14T07:18:26.530Z,10.79
2017-10-14T07:19:26.452Z,10.72
2017-10-14T07:20:26.373Z,10.78
2017-10-14T07:21:26.299Z,10.86
2017-10-14T07:22:26.220Z,10.86
2017-10-14T07:23:26.140Z,10.87
2017-10-14T07:24:26.063Z,10.82
2017-10-14T07:25:26.062Z,10.81
2017-10-14T07:26:25.905Z,10.84
2017-10-14T07:27:25.826Z,10.82
2017-10-14T07:28:25.753Z,10.92
2017-10-14T07:29:25.671Z,10.89
2017-10-14T07:30:25.596Z,10.96
2017-10-14T07:31:25.517Z,10.97
2017-10-14T07:32:25.438Z,10.93
2017-10-14T07:33:25.365Z,10.93
2017-10-14T07:34:25.282Z,11.04
2017-10-14T07:35:25.203Z,10.99
2017-10-14T07:36:25.125Z,11.07
2017-10-14T07:37:25.173Z,11.08
2017-10-14T07:38:24.969Z,11.11
2017-10-14T07:39:24.894Z,11.02
2017-10-14T07:40:24.814Z,11.02
2017-10-14T07:41:24.735Z,11.07
2017-10-14T07:42:24.659Z,11.07
2017-10-14T07:43:24.582Z,11.05
2017-10-14T07:44:24.971Z,11.12
2017-10-14T07:45:24.425Z,11.05
2017-10-14T07:46:24.347Z,11.07
2017-10-14T07:47:24.375Z,11.15
2017-10-14T07:48:24.297Z,11.08
2017-10-14T07:49:24.113Z,11.18
2017-10-14T07:50:24.037Z,11.26
2017-10-14T07:51:23.959Z,11.19
2017-10-14T07:52:23.880Z,11.29
2017-10-14T07:53:23.803Z,11.23
2017-10-14T07:54:23.726Z,11.25
2017-10-14T07:55:23.649Z,11.22
2017-10-14T07:56:23.571Z,11.26
2017-10-14T07:57:23.495Z,11.22
2017-10-14T07:58:23.503Z,11.25
2017-10-14T07:59:23.366Z,11.22
2017-10-14T08:00:23.294Z,11.29
2017-10-14T08:01:23.275Z,11.35
2017-10-14T08:02:23.148Z,11.32
2017-10-14T08:03:23.032Z,11.45
2017-10-14T08:04:22.949Z,11.36
2017-10-14T08:05:22.968Z,11.48
2017-10-14T08:06:22.794Z,11.45
2017-10-14T08:07:24.644Z,11.41
2017-10-14T08:08:22.638Z,11.43
2017-10-14T08:09:22.591Z,11.54
2017-10-14T08:10:22.667Z,11.54
2017-10-14T08:11:22.576Z,11.55
2017-10-14T08:12:22.874Z,11.54
2017-10-14T08:13:22.472Z,11.65
2017-10-14T08:14:22.433Z,11.72
2017-10-14T08:15:22.112Z,11.75
2017-10-14T08:16:22.356Z,11.72
2017-10-14T08:17:22.237Z,11.72
2017-10-14T08:18:22.105Z,11.78
2017-10-14T08:19:22.078Z,11.86
2017-10-14T08:20:21.714Z,11.88
2017-10-14T08:21:21.638Z,11.87
2017-10-14T08:22:21.619Z,11.87
2017-10-14T08:23:21.548Z,11.99
2017-10-14T08:24:21.404Z,11.91
2017-10-14T08:25:21.571Z,11.91
2017-10-14T08:26:21.250Z,12.03
2017-10-14T08:27:21.245Z,11.94
2017-10-14T08:28:21.259Z,12.00
2017-10-14T08:29:21.078Z,12.02
2017-10-14T08:30:21.006Z,11.99
2017-10-14T08:31:20.864Z,12.10
2017-10-14T08:32:20.996Z,12.21
2017-10-14T08:33:20.738Z,12.13
2017-10-14T08:34:21.557Z,12.17
2017-10-14T08:35:20.709Z,12.13
2017-10-14T08:36:20.481Z,12.20
2017-10-14T08:37:20.407Z,12.10
2017-10-14T08:38:20.827Z,12.17
2017-10-14T08:39:20.408Z,12.10
2017-10-14T08:40:20.184Z,12.17
2017-10-14T08:41:20.110Z,12.22
2017-10-14T08:42:20.040Z,12.25
2017-10-14T08:43:19.949Z,12.28
2017-10-14T08:44:20.565Z,12.21
2017-10-14T08:45:20.397Z,12.25
2017-10-14T08:46:19.709Z,12.17
2017-10-14T08:47:20.129Z,12.17
2017-10-14T08:48:19.681Z,12.10
2017-10-14T08:49:19.476Z,12.17
2017-10-14T08:50:19.582Z,12.20
2017-10-14T08:51:19.323Z,12.13
2017-10-14T08:52:19.501Z,12.18
2017-10-14T08:53:19.388Z,12.17
2017-10-14T08:54:19.408Z,12.20
2017-10-14T08:55:19.074Z,12.21
2017-10-14T08:56:19.066Z,12.25
2017-10-14T08:57:19.257Z,12.28
2017-10-14T08:58:18.806Z,12.20
2017-10-14T08:59:18.725Z,12.21
2017-10-14T09:00:18.649Z,12.22
2017-10-14T09:01:18.660Z,12.24
2017-10-14T09:03:53.023Z,12.36
2017-10-14T09:04:53.777Z,12.37
2017-10-14T09:05:52.803Z,12.37
2017-10-14T09:06:54.417Z,12.35
2017-10-14T09:07:55.553Z,12.39
2017-10-14T09:08:53.577Z,12.40
2017-10-14T09:09:52.587Z,12.39
2017-10-14T09:10:52.522Z,12.37
2017-10-14T09:11:52.342Z,12.39
2017-10-14T09:12:52.265Z,12.37
2017-10-14T09:13:52.188Z,12.42
2017-10-14T09:14:52.112Z,12.39
2017-10-14T09:15:52.034Z,12.42
2017-10-14T09:16:52.436Z,12.50
2017-10-14T09:17:51.894Z,12.57
2017-10-14T09:18:52.288Z,12.49
2017-10-14T09:19:52.719Z,12.49
2017-10-14T09:20:51.651Z,12.47
2017-10-14T09:21:51.586Z,12.67
2017-10-14T09:22:51.499Z,12.64
2017-10-14T09:23:51.460Z,12.58
2017-10-14T09:24:51.346Z,12.72
2017-10-14T09:25:51.565Z,12.68
2017-10-14T09:26:51.213Z,12.73
2017-10-14T09:27:51.295Z,12.82
2017-10-14T09:28:51.049Z,12.80
2017-10-14T09:29:51.500Z,12.73
2017-10-14T09:30:51.005Z,12.87
2017-10-14T09:31:50.818Z,12.85
2017-10-14T09:32:51.014Z,12.90
2017-10-14T09:33:50.896Z,13.00
2017-10-14T09:34:50.579Z,13.00
2017-10-14T09:35:50.504Z,12.94
2017-10-14T09:36:50.422Z,12.93
2017-10-14T09:37:50.419Z,13.08
2017-10-14T09:38:52.077Z,13.08
2017-10-14T09:39:50.195Z,13.12
2017-10-14T09:40:50.235Z,13.13
2017-10-14T09:41:50.415Z,13.19
2017-10-14T09:42:50.743Z,13.28
2017-10-14T09:43:52.574Z,13.23
2017-10-14T09:44:50.875Z,13.27
2017-10-14T09:45:49.739Z,13.39
2017-10-14T09:46:50.497Z,13.41
2017-10-14T09:47:49.753Z,13.44
2017-10-14T09:48:52.951Z,13.41
2017-10-14T09:49:49.444Z,13.47
2017-10-14T09:50:49.357Z,13.49
2017-10-14T09:51:49.274Z,13.46
2017-10-14T09:52:49.333Z,13.53
2017-10-14T09:53:49.502Z,13.60
2017-10-14T09:54:49.053Z,13.65
2017-10-14T09:55:49.430Z,13.68
2017-10-14T09:56:48.930Z,13.71
2017-10-14T09:57:49.443Z,13.77
2017-10-14T09:58:49.137Z,13.71
2017-10-14T09:59:48.666Z,13.81
2017-10-14T10:00:48.590Z,13.81
2017-10-14T10:01:48.701Z,13.71
2017-10-14T10:02:48.746Z,13.77
2017-10-14T10:03:48.856Z,13.78
2017-10-14T10:04:48.308Z,13.90
2017-10-14T10:05:48.218Z,13.97
2017-10-14T10:06:48.481Z,13.95
2017-10-14T10:07:48.058Z,13.96
2017-10-14T10:08:47.980Z,14.04
2017-10-14T10:09:47.973Z,14.11
2017-10-14T10:10:47.897Z,14.03
2017-10-14T10:11:47.752Z,14.12
2017-10-14T10:12:48.068Z,14.18
2017-10-14T10:13:47.694Z,14.29
2017-10-14T10:14:47.531Z,14.35
2017-10-14T10:15:47.489Z,14.40
2017-10-14T10:16:47.417Z,14.43
2017-10-14T10:17:47.518Z,14.50
2017-10-14T10:18:47.347Z,14.47
2017-10-14T10:19:47.404Z,14.54
2017-10-14T10:20:47.126Z,14.51
2017-10-14T10:21:47.038Z,14.53
2017-10-14T10:22:46.919Z,14.63
2017-10-14T10:23:46.950Z,14.68
2017-10-14T10:24:46.861Z,14.60
2017-10-14T10:25:47.161Z,14.59
2017-10-14T10:26:46.910Z,14.69
2017-10-14T10:27:46.542Z,14.73
2017-10-14T10:28:46.977Z,14.81
2017-10-14T10:29:46.484Z,14.79
2017-10-14T10:30:46.382Z,14.86
2017-10-14T10:31:46.454Z,14.89
2017-10-14T10:32:46.173Z,14.91
2017-10-14T10:33:46.852Z,14.99
2017-10-14T10:34:46.015Z,15.00
2017-10-14T10:35:45.944Z,15.09
2017-10-14T10:36:46.732Z,15.14
2017-10-14T10:37:45.910Z,15.17
2017-10-14T10:38:45.750Z,15.14
2017-10-14T10:39:45.807Z,15.24
2017-10-14T10:40:45.576Z,15.27
2017-10-14T10:41:45.490Z,15.33
2017-10-14T10:42:45.414Z,15.39
2017-10-14T10:43:45.440Z,15.44
2017-10-14T10:44:45.552Z,15.40
2017-10-14T10:45:45.249Z,15.49
2017-10-14T10:46:45.664Z,15.51
2017-10-14T10:47:45.104Z,15.62
2017-10-14T10:48:45.271Z,15.68
2017-10-14T10:49:45.490Z,15.88
2017-10-14T10:50:45.256Z,15.91
2017-10-14T10:51:44.746Z,16.02
2017-10-14T10:52:45.543Z,15.92
2017-10-14T10:53:44.593Z,16.02
2017-10-14T10:54:44.702Z,16.02
2017-10-14T10:55:44.466Z,16.05
2017-10-14T10:56:44.368Z,16.08
2017-10-14T10:57:44.294Z,16.15
2017-10-14T10:58:44.222Z,16.16
2017-10-14T10:59:46.146Z,16.20
2017-10-14T11:00:44.334Z,16.28
2017-10-14T11:01:43.996Z,16.35
2017-10-14T11:02:44.561Z,16.54
2017-10-14T11:03:44.046Z,17.26
2017-10-14T11:04:44.546Z,18.40
2017-10-14T11:05:43.760Z,20.07
2017-10-14T11:06:43.652Z,21.69
2017-10-14T11:07:43.956Z,23.02
2017-10-14T11:08:43.565Z,24.03
2017-10-14T11:09:43.422Z,24.95
2017-10-14T11:10:43.883Z,25.78
2017-10-14T11:11:43.517Z,26.52
2017-10-14T11:12:43.283Z,27.17
2017-10-14T11:13:43.189Z,27.75
2017-10-14T11:14:43.816Z,28.30
2017-10-14T11:15:43.105Z,28.78
2017-10-14T11:16:43.205Z,29.07
2017-10-14T11:17:42.865Z,29.56
2017-10-14T11:18:42.799Z,29.97
2017-10-14T11:19:42.738Z,30.34
2017-10-14T11:20:42.719Z,30.73
2017-10-14T11:21:42.610Z,31.00
2017-10-14T11:22:42.720Z,31.28
2017-10-14T11:23:42.479Z,31.52
2017-10-14T11:24:42.729Z,31.76
2017-10-14T11:25:42.961Z,31.81
2017-10-14T11:26:42.564Z,32.08
2017-10-14T11:27:42.362Z,32.31
2017-10-14T11:28:42.478Z,32.55
2017-10-14T11:29:42.184Z,32.87
2017-10-14T11:30:42.180Z,33.07
2017-10-14T11:31:42.285Z,33.23
2017-10-14T11:32:41.942Z,33.37
2017-10-14T11:33:41.886Z,33.67
2017-10-14T11:34:43.652Z,33.81
2017-10-14T11:35:41.802Z,33.92
2017-10-14T11:36:42.339Z,34.18
2017-10-14T11:37:41.822Z,34.33
2017-10-14T11:38:41.589Z,34.39
2017-10-14T11:39:43.087Z,34.43
2017-10-14T11:40:41.471Z,34.36
2017-10-14T11:41:41.416Z,34.51
2017-10-14T11:42:41.359Z,34.70
2017-10-14T11:43:41.302Z,34.81
2017-10-14T11:44:41.247Z,34.75
2017-10-14T11:45:41.189Z,34.88
2017-10-14T11:46:41.136Z,34.96
2017-10-14T11:47:41.078Z,35.15
2017-10-14T11:48:41.022Z,35.15
2017-10-14T11:49:40.968Z,35.45
2017-10-14T11:50:40.914Z,35.29
2017-10-14T11:51:41.493Z,34.62
2017-10-14T11:52:40.821Z,35.10
2017-10-14T11:53:40.758Z,35.08
2017-10-14T11:54:40.778Z,35.02
2017-10-14T11:55:40.685Z,35.23
2017-10-14T11:56:40.584Z,35.14
2017-10-14T11:57:40.537Z,35.12
2017-10-14T11:58:40.476Z,35.05
2017-10-14T11:59:40.438Z,35.07
2017-10-14T12:00:40.365Z,35.10
2017-10-14T12:01:40.311Z,35.15
2017-10-14T12:02:40.258Z,35.22
2017-10-14T12:03:40.275Z,35.37
2017-10-14T12:04:40.148Z,35.24
2017-10-14T12:05:40.194Z,35.26
2017-10-14T12:06:40.041Z,35.02
2017-10-14T12:07:40.088Z,34.95
2017-10-14T12:08:39.957Z,34.66
2017-10-14T12:09:39.969Z,34.48
2017-10-14T12:10:39.835Z,34.32
2017-10-14T12:11:40.098Z,34.06
2017-10-14T12:12:39.726Z,33.69
2017-10-14T12:13:39.663Z,33.27
2017-10-14T12:14:39.610Z,32.87
2017-10-14T12:15:39.649Z,32.38
2017-10-14T12:16:39.514Z,31.89
2017-10-14T12:17:39.465Z,31.29
2017-10-14T12:18:39.479Z,31.03
2017-10-14T12:19:39.420Z,31.00
2017-10-14T12:20:39.325Z,30.91
2017-10-14T12:21:39.230Z,30.85
2017-10-14T12:22:39.315Z,30.99
2017-10-14T12:23:39.148Z,30.90
2017-10-14T12:24:39.153Z,31.12
2017-10-14T12:25:39.005Z,30.94
2017-10-14T12:26:38.974Z,31.07
2017-10-14T12:27:38.955Z,30.83
2017-10-14T12:28:38.869Z,30.57
2017-10-14T12:29:38.774Z,30.35
2017-10-14T12:30:38.721Z,30.43
2017-10-14T12:31:38.667Z,30.34
2017-10-14T12:32:38.657Z,30.62
2017-10-14T12:33:38.586Z,30.61
2017-10-14T12:34:38.493Z,30.62
2017-10-14T12:35:38.499Z,30.72
2017-10-14T12:36:38.490Z,30.81
2017-10-14T12:37:38.318Z,30.70
2017-10-14T12:38:38.260Z,30.34
2017-10-14T12:39:38.200Z,29.68
2017-10-14T12:40:38.145Z,29.01
2017-10-14T12:41:38.130Z,28.57
2017-10-14T12:42:38.030Z,28.19
2017-10-14T12:43:37.973Z,27.63
2017-10-14T12:44:37.944Z,27.26
2017-10-14T12:45:37.858Z,26.88
2017-10-14T12:46:37.805Z,26.83
2017-10-14T12:47:37.736Z,26.63
2017-10-14T12:48:37.680Z,26.28
2017-10-14T12:49:37.681Z,25.93
2017-10-14T12:50:37.557Z,25.68
2017-10-14T12:51:37.494Z,25.44
2017-10-14T12:52:37.465Z,25.31
2017-10-14T12:53:37.405Z,25.08
2017-10-14T12:54:37.312Z,24.86
2017-10-14T12:55:37.326Z,24.74
2017-10-14T12:56:37.194Z,24.69
2017-10-14T12:57:37.124Z,24.58
2017-10-14T12:58:37.087Z,24.66